Hjaltland — VSTY8 — position and weather

sailwx.info

Track history (hours):
 
Tides and Currents Weather Stations Pressure Air Temp Water Temp Dewpoint Dewpoint Depression Visibility Wind Speed Wind Dir Waves Ship Positions

Hjaltland

Operator: NorthLink Orkey & Shetland Ferries Ltd

Last reported at 2017-Jun-26 00:03 UTC. Time now 2017-Jun-26 17:17 UTC.
Position N 59°04' W 002°27'.

Type: Passenger vessel. MMSI: 235450000.

Date/timePositionNaut miles runAvg speedWind from/ knotsBaromVisibWave heightAir tempDewpointWater temp
2017-Jun-26 00:03N 59°04' W 002°27'111.5
2017-Jun-26 00:00N 59°04' W 002°28'610.8
2017-Jun-25 23:28N 59°01' W 002°37'613.6
2017-Jun-25 23:00N 59°01' W 002°49'5 4.3
2017-Jun-25 21:53N 58°60' W 002°58'514.1
2017-Jun-25 21:30N 59°00' W 002°48'1019.2
2017-Jun-25 21:00N 58°54' W 002°34'8222.8
2017-Jun-25 17:23N 57°36' W 001°42'923.3
2017-Jun-25 17:00N 57°27' W 001°41'1223.2
2017-Jun-25 16:30N 57°17' W 001°52'1121.4
2017-Jun-25 16:00N 57°09' W 002°04'1 1.6
2017-Jun-25 15:30N 57°09' W 002°05'0 0.0
2017-Jun-25 15:00N 57°09' W 002°05'0 0.0
2017-Jun-25 14:30N 57°09' W 002°05'0 0.0
2017-Jun-25 13:30N 57°09' W 002°05'0 0.0
2017-Jun-25 13:00N 57°09' W 002°05'0 0.0
2017-Jun-25 12:30N 57°09' W 002°05'0 0.0
2017-Jun-25 12:00N 57°09' W 002°05'0 0.0
2017-Jun-25 11:28N 57°09' W 002°05'0 0.0
2017-Jun-25 10:58N 57°09' W 002°05'0 0.0
2017-Jun-25 10:28N 57°09' W 002°05'0 0.0
2017-Jun-25 09:58N 57°09' W 002°05'0 0.0
2017-Jun-25 09:28N 57°09' W 002°05'0 0.0
2017-Jun-25 08:58N 57°09' W 002°05'0 0.0
2017-Jun-25 08:28N 57°09' W 002°05'0 0.0
2017-Jun-25 07:58N 57°09' W 002°05'0 0.0
2017-Jun-25 07:28N 57°09' W 002°05'0 0.0
2017-Jun-25 06:52N 57°09' W 002°05'0 0.0
2017-Jun-25 06:28N 57°09' W 002°05'0 0.0
2017-Jun-25 05:59N 57°09' W 002°05'1 1.4
2017-Jun-25 05:31N 57°08' W 002°04'815.7
2017-Jun-25 05:00N 57°14' W 001°54'2021.3
2017-Jun-25 04:04N 57°32' W 001°37'2 0.1
2017-Jun-23 20:03N 57°34' W 001°37'114.4
2017-Jun-23 20:00N 57°34' W 001°37'714.7
2017-Jun-23 19:30N 57°26' W 001°40'714.6
2017-Jun-23 18:59N 57°20' W 001°48'714.7
2017-Jun-23 18:30N 57°14' W 001°55'815.3
2017-Jun-23 18:00N 57°09' W 002°04'1 1.4
2017-Jun-23 17:28N 57°09' W 002°05'0 0.0
2017-Jun-23 16:58N 57°09' W 002°05'0 0.0
2017-Jun-23 16:28N 57°09' W 002°05'0 0.0
2017-Jun-23 15:58N 57°09' W 002°05'0 0.0
2017-Jun-23 15:28N 57°09' W 002°05'0 0.0
2017-Jun-23 14:58N 57°09' W 002°05'0 0.0
2017-Jun-23 13:58N 57°09' W 002°05'0 0.0
2017-Jun-23 13:28N 57°09' W 002°05'0 0.0
2017-Jun-23 12:58N 57°09' W 002°05'0 0.0
2017-Jun-23 12:28N 57°09' W 002°05'0 0.0
2017-Jun-23 11:58N 57°09' W 002°05'0 0.0
2017-Jun-23 11:28N 57°09' W 002°05'0 0.0
2017-Jun-23 10:58N 57°09' W 002°05'0 0.0
2017-Jun-23 10:28N 57°09' W 002°05'0 0.0
2017-Jun-23 09:58N 57°09' W 002°05'0 0.0
2017-Jun-23 09:28N 57°09' W 002°05'0 0.0
2017-Jun-23 08:58N 57°09' W 002°05'0 0.0
2017-Jun-23 08:28N 57°09' W 002°05'0 0.0
2017-Jun-23 07:58N 57°09' W 002°05'0 0.0
2017-Jun-23 07:28N 57°09' W 002°05'0 0.0
2017-Jun-23 06:58N 57°09' W 002°05'0 0.0
2017-Jun-23 06:28N 57°09' W 002°05'0 0.0
2017-Jun-23 05:58N 57°09' W 002°05'1 1.5
2017-Jun-23 05:30N 57°09' W 002°04'612.8
2017-Jun-23 05:00N 57°13' W 001°56'1815.5
2017-Jun-23 03:51N 57°28' W 001°38'3 0.1
2017-Jun-21 19:57N 57°31' W 001°37'1413.0
2017-Jun-21 18:55N 57°19' W 001°49'614.1
2017-Jun-21 18:31N 57°15' W 001°55'714.2
2017-Jun-21 18:00N 57°09' W 002°03'1 2.7
2017-Jun-21 17:30N 57°09' W 002°05'0 0.0
2017-Jun-21 17:00N 57°09' W 002°05'0 0.0
2017-Jun-21 16:30N 57°09' W 002°05'0 0.0
2017-Jun-21 16:00N 57°09' W 002°05'0 0.0
2017-Jun-21 15:30N 57°09' W 002°05'0 0.0
2017-Jun-21 15:00N 57°09' W 002°05'0 0.0
2017-Jun-21 14:00N 57°09' W 002°05'0 0.0
2017-Jun-21 13:30N 57°09' W 002°05'0 0.0
2017-Jun-21 13:00N 57°09' W 002°05'0 0.0
2017-Jun-21 12:30N 57°09' W 002°05'0 0.0
2017-Jun-21 12:00N 57°09' W 002°05'0 0.0
2017-Jun-21 11:30N 57°09' W 002°05'0 0.0
2017-Jun-21 11:00N 57°09' W 002°05'0 0.0
2017-Jun-21 10:30N 57°09' W 002°05'0 0.0
2017-Jun-21 10:00N 57°09' W 002°05'0 0.0
2017-Jun-21 09:30N 57°09' W 002°05'0 0.0
2017-Jun-21 09:00N 57°09' W 002°05'0 0.0
2017-Jun-21 08:30N 57°09' W 002°05'0 0.0
2017-Jun-21 08:00N 57°09' W 002°05'0 0.0
2017-Jun-21 07:30N 57°09' W 002°05'0 0.0
2017-Jun-21 07:00N 57°09' W 002°05'0 0.0
2017-Jun-21 06:28N 57°09' W 002°05'0 0.0
2017-Jun-21 05:58N 57°09' W 002°05'0 1.0
2017-Jun-21 05:30N 57°09' W 002°05'611.3
2017-Jun-21 05:00N 57°12' W 001°57'1115.4
2017-Jun-21 04:20N 57°21' W 001°46'615.2
2017-Jun-21 03:56N 57°26' W 001°40'511.0
2017-Jun-21 03:30N 57°31' W 001°37'2 0.1
2017-Jun-19 19:38N 57°33' W 001°38'317.1
2017-Jun-19 19:27N 57°30' W 001°39'1217.3
2017-Jun-19 18:46N 57°19' W 001°48'517.8
2017-Jun-19 18:30N 57°15' W 001°53'816.9
2017-Jun-19 18:01N 57°09' W 002°03'1 2.0
2017-Jun-19 17:29N 57°09' W 002°05'0 0.0
2017-Jun-19 16:59N 57°09' W 002°05'0 0.0
2017-Jun-19 16:29N 57°09' W 002°05'0 0.0
2017-Jun-19 15:59N 57°09' W 002°05'0 0.0
2017-Jun-19 15:29N 57°09' W 002°05'0 0.0
2017-Jun-19 14:59N 57°09' W 002°05'0 0.0
2017-Jun-19 14:29N 57°09' W 002°05'0 0.0
2017-Jun-19 13:29N 57°09' W 002°05'0 0.0
2017-Jun-19 12:59N 57°09' W 002°05'0 0.0
2017-Jun-19 12:29N 57°09' W 002°05'0 0.0
2017-Jun-19 11:59N 57°09' W 002°05'0 0.0
2017-Jun-19 11:29N 57°09' W 002°05'0 0.0
2017-Jun-19 10:59N 57°09' W 002°05'0 0.0
2017-Jun-19 10:29N 57°09' W 002°05'0 0.0
2017-Jun-19 09:59N 57°09' W 002°05'0 0.0
2017-Jun-19 09:29N 57°09' W 002°05'0 0.0
2017-Jun-19 08:59N 57°09' W 002°05'0 0.0
2017-Jun-19 08:29N 57°09' W 002°05'0 0.0
2017-Jun-19 07:59N 57°09' W 002°05'0 0.0
2017-Jun-19 07:29N 57°09' W 002°05'0 0.0
2017-Jun-19 06:59N 57°09' W 002°05'0 0.0
2017-Jun-19 06:29N 57°09' W 002°05'0 0.0
2017-Jun-19 05:59N 57°09' W 002°05'0 1.0
2017-Jun-19 05:30N 57°09' W 002°05'611.1
2017-Jun-19 05:00N 57°12' W 001°57'2712.6
2017-Jun-19 02:53N 57°37' W 001°39'1112.3
2017-Jun-19 01:57N 57°49' W 001°40'79 3.1
2017-Jun-18 00:07N 59°04' W 002°27'216.7
2017-Jun-18 00:00N 59°03' W 002°29'815.0
2017-Jun-17 23:30N 59°01' W 002°43'714.6
2017-Jun-17 23:00N 59°00' W 002°58'1 0.6
2017-Jun-17 21:57N 58°60' W 002°58'614.0
2017-Jun-17 21:30N 59°00' W 002°46'7422.9
2017-Jun-17 18:17N 57°53' W 001°50'622.6
2017-Jun-17 18:00N 57°47' W 001°46'1221.7
2017-Jun-17 17:28N 57°35' W 001°41'1520.9
2017-Jun-17 16:43N 57°20' W 001°48'522.9
2017-Jun-17 16:30N 57°16' W 001°53'1019.7
2017-Jun-17 16:00N 57°08' W 002°04'1 1.4
2017-Jun-17 15:30N 57°09' W 002°05'0 0.0
2017-Jun-17 15:00N 57°09' W 002°05'0 0.0
2017-Jun-17 14:30N 57°09' W 002°05'0 0.0
2017-Jun-17 13:30N 57°09' W 002°05'0 0.0
2017-Jun-17 13:00N 57°09' W 002°05'0 0.0
2017-Jun-17 12:30N 57°09' W 002°05'0 0.0
2017-Jun-17 12:00N 57°09' W 002°05'0 0.0
2017-Jun-17 11:30N 57°09' W 002°05'0 0.0
2017-Jun-17 11:00N 57°09' W 002°05'0 0.0
2017-Jun-17 10:30N 57°09' W 002°05'0 0.0
2017-Jun-17 10:00N 57°09' W 002°05'0 0.0
2017-Jun-17 09:30N 57°09' W 002°05'0 0.0
2017-Jun-17 09:00N 57°09' W 002°05'0 0.0
2017-Jun-17 08:30N 57°09' W 002°05'0 0.0
2017-Jun-17 08:00N 57°09' W 002°05'0 0.0
2017-Jun-17 07:30N 57°09' W 002°05'0 0.0
2017-Jun-17 06:59N 57°09' W 002°05'0 0.0
2017-Jun-17 06:29N 57°09' W 002°05'0 0.0
2017-Jun-17 05:59N 57°09' W 002°05'0 0.9
2017-Jun-17 05:31N 57°09' W 002°05'713.4
2017-Jun-17 05:00N 57°13' W 001°55'2317.9
2017-Jun-17 03:42N 57°34' W 001°37'618.6
2017-Jun-17 03:24N 57°39' W 001°40'7821.7
2017-Jun-16 23:49N 58°52' W 002°31'722.7
2017-Jun-16 23:30N 58°58' W 002°38'1020.9
2017-Jun-16 23:00N 59°01' W 002°58'1 0.6
2017-Jun-16 21:25N 58°60' W 002°58'511.3
2017-Jun-16 21:01N 59°00' W 002°49'13 0.6
2017-Jun-16 00:34N 59°05' W 002°26'118.7
2017-Jun-16 00:30N 59°04' W 002°27'  
Track history (hours):
 
Tides and Currents Weather Stations Pressure Air Temp Water Temp Dewpoint Dewpoint Depression Visibility Wind Speed Wind Dir Waves Ship Positions

Hjaltland

Operator: NorthLink Orkey & Shetland Ferries Ltd

Last reported at 2017-Jun-26 00:03 UTC. Time now 2017-Jun-26 17:17 UTC.
Position N 59°04' W 002°27'.

Type: Passenger vessel. MMSI: 235450000.

Date/timePositionNaut miles runAvg speedWind from/ knotsBaromVisibWave heightAir tempDewpointWater temp
2017-Jun-26 00:03N 59°04' W 002°27'111.5
2017-Jun-26 00:00N 59°04' W 002°28'610.8
2017-Jun-25 23:28N 59°01' W 002°37'613.6
2017-Jun-25 23:00N 59°01' W 002°49'5 4.3
2017-Jun-25 21:53N 58°60' W 002°58'514.1
2017-Jun-25 21:30N 59°00' W 002°48'1019.2
2017-Jun-25 21:00N 58°54' W 002°34'8222.8
2017-Jun-25 17:23N 57°36' W 001°42'923.3
2017-Jun-25 17:00N 57°27' W 001°41'1223.2
2017-Jun-25 16:30N 57°17' W 001°52'1121.4
2017-Jun-25 16:00N 57°09' W 002°04'1 1.6
2017-Jun-25 15:30N 57°09' W 002°05'0 0.0
2017-Jun-25 15:00N 57°09' W 002°05'0 0.0
2017-Jun-25 14:30N 57°09' W 002°05'0 0.0
2017-Jun-25 13:30N 57°09' W 002°05'0 0.0
2017-Jun-25 13:00N 57°09' W 002°05'0 0.0
2017-Jun-25 12:30N 57°09' W 002°05'0 0.0
2017-Jun-25 12:00N 57°09' W 002°05'0 0.0
2017-Jun-25 11:28N 57°09' W 002°05'0 0.0
2017-Jun-25 10:58N 57°09' W 002°05'0 0.0
2017-Jun-25 10:28N 57°09' W 002°05'0 0.0
2017-Jun-25 09:58N 57°09' W 002°05'0 0.0
2017-Jun-25 09:28N 57°09' W 002°05'0 0.0
2017-Jun-25 08:58N 57°09' W 002°05'0 0.0
2017-Jun-25 08:28N 57°09' W 002°05'0 0.0
2017-Jun-25 07:58N 57°09' W 002°05'0 0.0
2017-Jun-25 07:28N 57°09' W 002°05'0 0.0
2017-Jun-25 06:52N 57°09' W 002°05'0 0.0
2017-Jun-25 06:28N 57°09' W 002°05'0 0.0
2017-Jun-25 05:59N 57°09' W 002°05'1 1.4
2017-Jun-25 05:31N 57°08' W 002°04'815.7
2017-Jun-25 05:00N 57°14' W 001°54'2021.3
2017-Jun-25 04:04N 57°32' W 001°37'2 0.1
2017-Jun-23 20:03N 57°34' W 001°37'114.4
2017-Jun-23 20:00N 57°34' W 001°37'714.7
2017-Jun-23 19:30N 57°26' W 001°40'714.6
2017-Jun-23 18:59N 57°20' W 001°48'714.7
2017-Jun-23 18:30N 57°14' W 001°55'815.3
2017-Jun-23 18:00N 57°09' W 002°04'1 1.4
2017-Jun-23 17:28N 57°09' W 002°05'0 0.0
2017-Jun-23 16:58N 57°09' W 002°05'0 0.0
2017-Jun-23 16:28N 57°09' W 002°05'0 0.0
2017-Jun-23 15:58N 57°09' W 002°05'0 0.0
2017-Jun-23 15:28N 57°09' W 002°05'0 0.0
2017-Jun-23 14:58N 57°09' W 002°05'0 0.0
2017-Jun-23 13:58N 57°09' W 002°05'0 0.0
2017-Jun-23 13:28N 57°09' W 002°05'0 0.0
2017-Jun-23 12:58N 57°09' W 002°05'0 0.0
2017-Jun-23 12:28N 57°09' W 002°05'0 0.0
2017-Jun-23 11:58N 57°09' W 002°05'0 0.0
2017-Jun-23 11:28N 57°09' W 002°05'0 0.0
2017-Jun-23 10:58N 57°09' W 002°05'0 0.0
2017-Jun-23 10:28N 57°09' W 002°05'0 0.0
2017-Jun-23 09:58N 57°09' W 002°05'0 0.0
2017-Jun-23 09:28N 57°09' W 002°05'0 0.0
2017-Jun-23 08:58N 57°09' W 002°05'0 0.0
2017-Jun-23 08:28N 57°09' W 002°05'0 0.0
2017-Jun-23 07:58N 57°09' W 002°05'0 0.0
2017-Jun-23 07:28N 57°09' W 002°05'0 0.0
2017-Jun-23 06:58N 57°09' W 002°05'0 0.0
2017-Jun-23 06:28N 57°09' W 002°05'0 0.0
2017-Jun-23 05:58N 57°09' W 002°05'1 1.5
2017-Jun-23 05:30N 57°09' W 002°04'612.8
2017-Jun-23 05:00N 57°13' W 001°56'1815.5
2017-Jun-23 03:51N 57°28' W 001°38'3 0.1
2017-Jun-21 19:57N 57°31' W 001°37'1413.0
2017-Jun-21 18:55N 57°19' W 001°49'614.1
2017-Jun-21 18:31N 57°15' W 001°55'714.2
2017-Jun-21 18:00N 57°09' W 002°03'1 2.7
2017-Jun-21 17:30N 57°09' W 002°05'0 0.0
2017-Jun-21 17:00N 57°09' W 002°05'0 0.0
2017-Jun-21 16:30N 57°09' W 002°05'0 0.0
2017-Jun-21 16:00N 57°09' W 002°05'0 0.0
2017-Jun-21 15:30N 57°09' W 002°05'0 0.0
2017-Jun-21 15:00N 57°09' W 002°05'0 0.0
2017-Jun-21 14:00N 57°09' W 002°05'0 0.0
2017-Jun-21 13:30N 57°09' W 002°05'0 0.0
2017-Jun-21 13:00N 57°09' W 002°05'0 0.0
2017-Jun-21 12:30N 57°09' W 002°05'0 0.0
2017-Jun-21 12:00N 57°09' W 002°05'0 0.0
2017-Jun-21 11:30N 57°09' W 002°05'0 0.0
2017-Jun-21 11:00N 57°09' W 002°05'0 0.0
2017-Jun-21 10:30N 57°09' W 002°05'0 0.0
2017-Jun-21 10:00N 57°09' W 002°05'0 0.0
2017-Jun-21 09:30N 57°09' W 002°05'0 0.0
2017-Jun-21 09:00N 57°09' W 002°05'0 0.0
2017-Jun-21 08:30N 57°09' W 002°05'0 0.0
2017-Jun-21 08:00N 57°09' W 002°05'0 0.0
2017-Jun-21 07:30N 57°09' W 002°05'0 0.0
2017-Jun-21 07:00N 57°09' W 002°05'0 0.0
2017-Jun-21 06:28N 57°09' W 002°05'0 0.0
2017-Jun-21 05:58N 57°09' W 002°05'0 1.0
2017-Jun-21 05:30N 57°09' W 002°05'611.3
2017-Jun-21 05:00N 57°12' W 001°57'1115.4
2017-Jun-21 04:20N 57°21' W 001°46'615.2
2017-Jun-21 03:56N 57°26' W 001°40'511.0
2017-Jun-21 03:30N 57°31' W 001°37'2 0.1
2017-Jun-19 19:38N 57°33' W 001°38'317.1
2017-Jun-19 19:27N 57°30' W 001°39'1217.3
2017-Jun-19 18:46N 57°19' W 001°48'517.8
2017-Jun-19 18:30N 57°15' W 001°53'816.9
2017-Jun-19 18:01N 57°09' W 002°03'1 2.0
2017-Jun-19 17:29N 57°09' W 002°05'0 0.0
2017-Jun-19 16:59N 57°09' W 002°05'0 0.0
2017-Jun-19 16:29N 57°09' W 002°05'0 0.0
2017-Jun-19 15:59N 57°09' W 002°05'0 0.0
2017-Jun-19 15:29N 57°09' W 002°05'0 0.0
2017-Jun-19 14:59N 57°09' W 002°05'0 0.0
2017-Jun-19 14:29N 57°09' W 002°05'0 0.0
2017-Jun-19 13:29N 57°09' W 002°05'0 0.0
2017-Jun-19 12:59N 57°09' W 002°05'0 0.0
2017-Jun-19 12:29N 57°09' W 002°05'0 0.0
2017-Jun-19 11:59N 57°09' W 002°05'0 0.0
2017-Jun-19 11:29N 57°09' W 002°05'0 0.0
2017-Jun-19 10:59N 57°09' W 002°05'0 0.0
2017-Jun-19 10:29N 57°09' W 002°05'0 0.0
2017-Jun-19 09:59N 57°09' W 002°05'0 0.0
2017-Jun-19 09:29N 57°09' W 002°05'0 0.0
2017-Jun-19 08:59N 57°09' W 002°05'0 0.0
2017-Jun-19 08:29N 57°09' W 002°05'0 0.0
2017-Jun-19 07:59N 57°09' W 002°05'0 0.0
2017-Jun-19 07:29N 57°09' W 002°05'0 0.0
2017-Jun-19 06:59N 57°09' W 002°05'0 0.0
2017-Jun-19 06:29N 57°09' W 002°05'0 0.0
2017-Jun-19 05:59N 57°09' W 002°05'0 1.0
2017-Jun-19 05:30N 57°09' W 002°05'611.1
2017-Jun-19 05:00N 57°12' W 001°57'2712.6
2017-Jun-19 02:53N 57°37' W 001°39'1112.3
2017-Jun-19 01:57N 57°49' W 001°40'79 3.1
2017-Jun-18 00:07N 59°04' W 002°27'216.7
2017-Jun-18 00:00N 59°03' W 002°29'815.0
2017-Jun-17 23:30N 59°01' W 002°43'714.6
2017-Jun-17 23:00N 59°00' W 002°58'1 0.6
2017-Jun-17 21:57N 58°60' W 002°58'614.0
2017-Jun-17 21:30N 59°00' W 002°46'7422.9
2017-Jun-17 18:17N 57°53' W 001°50'622.6
2017-Jun-17 18:00N 57°47' W 001°46'1221.7
2017-Jun-17 17:28N 57°35' W 001°41'1520.9
2017-Jun-17 16:43N 57°20' W 001°48'522.9
2017-Jun-17 16:30N 57°16' W 001°53'1019.7
2017-Jun-17 16:00N 57°08' W 002°04'1 1.4
2017-Jun-17 15:30N 57°09' W 002°05'0 0.0
2017-Jun-17 15:00N 57°09' W 002°05'0 0.0
2017-Jun-17 14:30N 57°09' W 002°05'0 0.0
2017-Jun-17 13:30N 57°09' W 002°05'0 0.0
2017-Jun-17 13:00N 57°09' W 002°05'0 0.0
2017-Jun-17 12:30N 57°09' W 002°05'0 0.0
2017-Jun-17 12:00N 57°09' W 002°05'0 0.0
2017-Jun-17 11:30N 57°09' W 002°05'0 0.0
2017-Jun-17 11:00N 57°09' W 002°05'0 0.0
2017-Jun-17 10:30N 57°09' W 002°05'0 0.0
2017-Jun-17 10:00N 57°09' W 002°05'0 0.0
2017-Jun-17 09:30N 57°09' W 002°05'0 0.0
2017-Jun-17 09:00N 57°09' W 002°05'0 0.0
2017-Jun-17 08:30N 57°09' W 002°05'0 0.0
2017-Jun-17 08:00N 57°09' W 002°05'0 0.0
2017-Jun-17 07:30N 57°09' W 002°05'0 0.0
2017-Jun-17 06:59N 57°09' W 002°05'0 0.0
2017-Jun-17 06:29N 57°09' W 002°05'0 0.0
2017-Jun-17 05:59N 57°09' W 002°05'0 0.9
2017-Jun-17 05:31N 57°09' W 002°05'713.4
2017-Jun-17 05:00N 57°13' W 001°55'2317.9
2017-Jun-17 03:42N 57°34' W 001°37'618.6
2017-Jun-17 03:24N 57°39' W 001°40'7821.7
2017-Jun-16 23:49N 58°52' W 002°31'722.7
2017-Jun-16 23:30N 58°58' W 002°38'1020.9
2017-Jun-16 23:00N 59°01' W 002°58'1 0.6
2017-Jun-16 21:25N 58°60' W 002°58'511.3
2017-Jun-16 21:01N 59°00' W 002°49'13 0.6
2017-Jun-16 00:34N 59°05' W 002°26'118.7
2017-Jun-16 00:30N 59°04' W 002°27'  

Dump ship's entire track history